Time;durP1;ratioP1;P1;durP2;ratioP2;P2;SDS_P1;SDS_P2;PMS_P1;PMS_P2;Temp;Humidity;BMP_temperature;BMP_pressure;BME280_temperature;BME280_humidity;BME280_pressure;Samples;Min_cycle;Max_cycle;Signal;HPM_P1;HPM_P2
2021/01/23 00:02:14;;;;;;;;;;;;;;;;;;5049848;28;20262;-77
2021/01/23 00:04:40;;;;;;;;;;;;;;;;;;5065544;28;19924;-78
2021/01/23 00:07:06;;;;;;;;;;;;;;;;;;5068791;28;20370;-77
2021/01/23 00:09:32;;;;;;;;;;;;;;;;;;5069289;28;19932;-77
2021/01/23 00:11:58;;;;;;;;;;;;;;;;;;5067175;28;20372;-77
2021/01/23 00:14:23;;;;;;;;;;;;;;;;;;5070008;28;19932;-76
2021/01/23 00:16:49;;;;;;;;;;;;;;;;;;5055756;28;20264;-79
2021/01/23 00:19:15;;;;;;;;;;;;;;;;;;5063929;28;19978;-78
2021/01/23 00:21:41;;;;;;;;;;;;;;;;;;5066938;28;19947;-77
2021/01/23 00:24:07;;;;;;;;;;;;;;;;;;5068689;28;19932;-76
2021/01/23 00:26:33;;;;;;;;;;;;;;;;;;5068738;28;19924;-77
2021/01/23 00:28:59;;;;;;;;;;;;;;;;;;5067075;28;20614;-77
2021/01/23 00:31:25;;;;;;;;;;;;;;;;;;5069616;28;19925;-76
2021/01/23 00:33:51;;;;;;;;;;;;;;;;;;5037912;28;19936;-78
2021/01/23 00:36:17;;;;;;;;;;;;;;;;;;5049232;28;19932;-77
2021/01/23 00:38:43;;;;;;;;;;;;;;;;;;5046646;28;19999;-77
2021/01/23 00:41:09;;;;;;;;;;;;;;;;;;5048917;28;19971;-78
2021/01/23 00:43:34;;;;;;;;;;;;;;;;;;5047953;28;19925;-77
2021/01/23 00:46:00;;;;;;;;;;;;;;;;;;5047267;28;19951;-77
2021/01/23 00:48:26;;;;;;;;;;;;;;;;;;5042265;28;19929;-77
2021/01/23 00:50:52;;;;;;;;;;;;;;;;;;5045767;28;19925;-78
2021/01/23 00:53:18;;;;;;;;;;;;;;;;;;5048949;28;20293;-77
2021/01/23 00:55:44;;;;;;;;;;;;;;;;;;5046481;28;19975;-77
2021/01/23 00:58:10;;;;;;;;;;;;;;;;;;5048314;28;20295;-77
2021/01/23 01:00:36;;;;;;;;;;;;;;;;;;5047620;28;19924;-77
2021/01/23 01:03:02;;;;;;;;;;;;;;;;;;5040529;28;20761;-78
2021/01/23 01:05:27;;;;;;;;;;;;;;;;;;5068878;28;19962;-78
2021/01/23 01:07:53;;;;;;;;;;;;;;;;;;5062720;28;20845;-78
2021/01/23 01:10:19;;;;;;;;;;;;;;;;;;5048633;28;19925;-78
2021/01/23 01:12:45;;;;;;;;;;;;;;;;;;5045701;28;20291;-78
2021/01/23 01:15:11;;;;;;;;;;;;;;;;;;5048611;28;19931;-76
2021/01/23 01:17:37;;;;;;;;;;;;;;;;;;5060210;28;19932;-76
2021/01/23 01:20:03;;;;;;;;;;;;;;;;;;5046111;28;19925;-77
2021/01/23 01:22:29;;;;;;;;;;;;;;;;;;5048141;28;19925;-77
2021/01/23 01:24:55;;;;;;;;;;;;;;;;;;5045739;28;19924;-78
2021/01/23 01:27:21;;;;;;;;;;;;;;;;;;5048754;28;20038;-79
2021/01/23 01:29:47;;;;;;;;;;;;;;;;;;5044903;28;19925;-78
2021/01/23 01:32:13;;;;;;;;;;;;;;;;;;5048505;28;19932;-79
2021/01/23 01:34:39;;;;;;;;;;;;;;;;;;5041880;28;19925;-79
2021/01/23 01:37:05;;;;;;;;;;;;;;;;;;5057343;28;19925;-79
2021/01/23 01:39:31;;;;;;;;;;;;;;;;;;5067272;28;20265;-77
2021/01/23 01:41:57;;;;;;;;;;;;;;;;;;5065547;28;19931;-79
2021/01/23 01:44:23;;;;;;;;;;;;;;;;;;5068556;28;20343;-79
2021/01/23 01:46:49;;;;;;;;;;;;;;;;;;5070449;28;19924;-79
2021/01/23 01:49:15;;;;;;;;;;;;;;;;;;5071066;28;20293;-79
2021/01/23 01:51:41;;;;;;;;;;;;;;;;;;5048157;28;19954;-79
2021/01/23 01:54:07;;;;;;;;;;;;;;;;;;5052974;28;19929;-77
2021/01/23 01:56:33;;;;;;;;;;;;;;;;;;5056625;28;19932;-78
2021/01/23 01:58:59;;;;;;;;;;;;;;;;;;5056818;28;19925;-78
2021/01/23 02:01:24;;;;;;;;;;;;;;;;;;5062361;28;19947;-78
2021/01/23 02:03:50;;;;;;;;;;;;;;;;;;5059591;28;19939;-79
2021/01/23 02:06:16;;;;;;;;;;;;;;;;;;5058770;28;20427;-79
2021/01/23 02:08:42;;;;;;;;;;;;;;;;;;5080345;28;19931;-78
2021/01/23 02:11:08;;;;;;;;;;;;;;;;;;5071498;28;19954;-79
2021/01/23 02:13:34;;;;;;;;;;;;;;;;;;5068341;28;19925;-78
2021/01/23 02:16:00;;;;;;;;;;;;;;;;;;5068744;28;19924;-78
2021/01/23 02:18:26;;;;;;;;;;;;;;;;;;5070241;28;19928;-78
2021/01/23 02:20:52;;;;;;;;;;;;;;;;;;5059668;28;20459;-78
2021/01/23 02:23:18;;;;;;;;;;;;;;;;;;5055824;28;19932;-80
2021/01/23 02:25:44;;;;;;;;;;;;;;;;;;5048330;28;19925;-81
2021/01/23 02:28:10;;;;;;;;;;;;;;;;;;5049169;28;19925;-78
2021/01/23 02:30:36;;;;;;;;;;;;;;;;;;5048675;28;20393;-78
2021/01/23 02:33:02;;;;;;;;;;;;;;;;;;5048236;28;19948;-79
2021/01/23 02:35:28;;;;;;;;;;;;;;;;;;5049483;28;20320;-78
2021/01/23 02:37:54;;;;;;;;;;;;;;;;;;5041498;28;19983;-79
2021/01/23 02:40:20;;;;;;;;;;;;;;;;;;5048319;28;19924;-79
2021/01/23 02:42:46;;;;;;;;;;;;;;;;;;5045199;28;19925;-78
2021/01/23 02:45:12;;;;;;;;;;;;;;;;;;5047743;28;19925;-78
2021/01/23 02:47:38;;;;;;;;;;;;;;;;;;5045554;28;19925;-80
2021/01/23 02:50:04;;;;;;;;;;;;;;;;;;5046032;28;20068;-80
2021/01/23 02:52:30;;;;;;;;;;;;;;;;;;5042201;28;19925;-79
2021/01/23 02:54:56;;;;;;;;;;;;;;;;;;5044750;28;19925;-80
2021/01/23 02:57:22;;;;;;;;;;;;;;;;;;5047521;28;19925;-80
2021/01/23 02:59:48;;;;;;;;;;;;;;;;;;5044980;28;19993;-80
2021/01/23 03:02:14;;;;;;;;;;;;;;;;;;5047348;28;19925;-79
2021/01/23 03:04:40;;;;;;;;;;;;;;;;;;5043657;28;20386;-80
2021/01/23 03:07:05;;;;;;;;;;;;;;;;;;5038823;28;19986;-79
2021/01/23 03:09:31;;;;;;;;;;;;;;;;;;5046675;28;19979;-80
2021/01/23 03:11:57;;;;;;;;;;;;;;;;;;5060661;28;19959;-80
2021/01/23 03:14:23;;;;;;;;;;;;;;;;;;5067261;28;19931;-80
2021/01/23 03:16:49;;;;;;;;;;;;;;;;;;5062250;28;20416;-80
2021/01/23 03:19:15;;;;;;;;;;;;;;;;;;5066080;28;19925;-80
2021/01/23 03:21:41;;;;;;;;;;;;;;;;;;5064352;28;19970;-79
2021/01/23 03:24:07;;;;;;;;;;;;;;;;;;5055540;28;19936;-79
2021/01/23 03:26:33;;;;;;;;;;;;;;;;;;5065505;28;19925;-80
2021/01/23 03:28:59;;;;;;;;;;;;;;;;;;5064056;28;19932;-80
2021/01/23 03:31:25;;;;;;;;;;;;;;;;;;5066647;28;20381;-80
2021/01/23 03:33:51;;;;;;;;;;;;;;;;;;5063631;28;19932;-80
2021/01/23 03:36:17;;;;;;;;;;;;;;;;;;5066280;28;20292;-80
2021/01/23 03:38:43;;;;;;;;;;;;;;;;;;5056141;28;19924;-80
2021/01/23 03:41:09;;;;;;;;;;;;;;;;;;5049040;28;20294;-79
2021/01/23 03:43:35;;;;;;;;;;;;;;;;;;5049282;28;19931;-79
2021/01/23 03:46:01;;;;;;;;;;;;;;;;;;5048784;28;19931;-80
2021/01/23 03:48:27;;;;;;;;;;;;;;;;;;5050373;28;19928;-80
2021/01/23 03:50:53;;;;;;;;;;;;;;;;;;5047106;28;19948;-79
2021/01/23 03:53:18;;;;;;;;;;;;;;;;;;5050185;28;19925;-79
2021/01/23 03:55:44;;;;;;;;;;;;;;;;;;5047093;28;19925;-79
2021/01/23 03:58:10;;;;;;;;;;;;;;;;;;5069919;28;19931;-79
2021/01/23 04:00:36;;;;;;;;;;;;;;;;;;5068998;28;20043;-79
2021/01/23 04:03:02;;;;;;;;;;;;;;;;;;5068373;28;19924;-80
2021/01/23 04:05:28;;;;;;;;;;;;;;;;;;5070432;28;19958;-80
2021/01/23 04:07:54;;;;;;;;;;;;;;;;;;5067183;28;20625;-80
2021/01/23 04:10:20;;;;;;;;;;;;;;;;;;5059772;28;19928;-80
2021/01/23 04:12:46;;;;;;;;;;;;;;;;;;5066893;28;20381;-80
2021/01/23 04:15:12;;;;;;;;;;;;;;;;;;5070020;28;19924;-79
2021/01/23 04:17:38;;;;;;;;;;;;;;;;;;5068291;28;20389;-80
2021/01/23 04:20:04;;;;;;;;;;;;;;;;;;5069472;28;19947;-80
2021/01/23 04:22:30;;;;;;;;;;;;;;;;;;5071958;28;19925;-79
2021/01/23 04:24:56;;;;;;;;;;;;;;;;;;5057843;28;20207;-80
2021/01/23 04:27:21;;;;;;;;;;;;;;;;;;5054150;28;19929;-80
2021/01/23 04:29:47;;;;;;;;;;;;;;;;;;5050653;28;19952;-79
2021/01/23 04:32:13;;;;;;;;;;;;;;;;;;5055242;28;19932;-79
2021/01/23 04:34:39;;;;;;;;;;;;;;;;;;5050855;28;19925;-78
2021/01/23 04:37:05;;;;;;;;;;;;;;;;;;5049012;28;19932;-79
2021/01/23 04:39:31;;;;;;;;;;;;;;;;;;5048867;28;20389;-78
2021/01/23 04:41:57;;;;;;;;;;;;;;;;;;5039864;28;19928;-79
2021/01/23 04:44:23;;;;;;;;;;;;;;;;;;5049711;28;20290;-79
2021/01/23 04:46:49;;;;;;;;;;;;;;;;;;5046265;28;20486;-79
2021/01/23 04:49:15;;;;;;;;;;;;;;;;;;5049614;28;20376;-79
2021/01/23 04:51:41;;;;;;;;;;;;;;;;;;5046656;28;19925;-79
2021/01/23 04:54:07;;;;;;;;;;;;;;;;;;5048557;28;20304;-79
2021/01/23 04:56:33;;;;;;;;;;;;;;;;;;5046870;28;19929;-80
2021/01/23 04:58:59;;;;;;;;;;;;;;;;;;5066946;28;20377;-79
2021/01/23 05:01:25;;;;;;;;;;;;;;;;;;5069381;28;19925;-79
2021/01/23 05:03:51;;;;;;;;;;;;;;;;;;5050521;28;20389;-79
2021/01/23 05:06:16;;;;;;;;;;;;;;;;;;5049414;28;19978;-79
2021/01/23 05:08:42;;;;;;;;;;;;;;;;;;5046692;28;20297;-79
2021/01/23 05:11:08;;;;;;;;;;;;;;;;;;5042824;28;19932;-79
2021/01/23 05:13:34;;;;;;;;;;;;;;;;;;5054938;28;20377;-79
2021/01/23 05:16:00;;;;;;;;;;;;;;;;;;5067882;28;19925;-80
2021/01/23 05:18:26;;;;;;;;;;;;;;;;;;5068799;28;20301;-79
2021/01/23 05:20:52;;;;;;;;;;;;;;;;;;5065662;28;19932;-79
2021/01/23 05:23:18;;;;;;;;;;;;;;;;;;5068609;28;20300;-79
2021/01/23 05:25:44;;;;;;;;;;;;;;;;;;5057811;28;19937;-79
2021/01/23 05:28:10;;;;;;;;;;;;;;;;;;5066288;28;19947;-79
2021/01/23 05:30:36;;;;;;;;;;;;;;;;;;5067306;28;19932;-80
2021/01/23 05:33:02;;;;;;;;;;;;;;;;;;5067046;28;20348;-78
2021/01/23 05:35:28;;;;;;;;;;;;;;;;;;5068408;28;19924;-81
2021/01/23 05:37:54;;;;;;;;;;;;;;;;;;5065428;28;20328;-78
2021/01/23 05:40:20;;;;;;;;;;;;;;;;;;5068525;28;19932;-79
2021/01/23 05:42:46;;;;;;;;;;;;;;;;;;5055043;28;20339;-79
2021/01/23 05:45:12;;;;;;;;;;;;;;;;;;5068373;28;20377;-79
2021/01/23 05:47:38;;;;;;;;;;;;;;;;;;5066714;28;19970;-79
2021/01/23 05:50:04;;;;;;;;;;;;;;;;;;5066893;28;20285;-80
2021/01/23 05:52:30;;;;;;;;;;;;;;;;;;5067885;28;19929;-79
2021/01/23 05:54:56;;;;;;;;;;;;;;;;;;5065258;28;20681;-79
2021/01/23 05:57:21;;;;;;;;;;;;;;;;;;5070153;28;19932;-80
2021/01/23 05:59:47;;;;;;;;;;;;;;;;;;5039328;28;20333;-80
2021/01/23 06:02:13;;;;;;;;;;;;;;;;;;5048678;28;19925;-80
2021/01/23 06:04:41;;;;;;;;;;;;;;;;;;5047583;28;20301;-79
2021/01/23 06:07:07;;;;;;;;;;;;;;;;;;5048504;28;19935;-80
2021/01/23 06:09:33;;;;;;;;;;;;;;;;;;5048337;28;20333;-80
2021/01/23 06:11:59;;;;;;;;;;;;;;;;;;5052568;28;19932;-80
2021/01/23 06:14:25;;;;;;;;;;;;;;;;;;5046292;28;19925;-81
2021/01/23 06:16:51;;;;;;;;;;;;;;;;;;5045303;28;19932;-80
2021/01/23 06:19:17;;;;;;;;;;;;;;;;;;5048341;28;19959;-81
2021/01/23 06:21:43;;;;;;;;;;;;;;;;;;5045442;28;20385;-78
2021/01/23 06:24:09;;;;;;;;;;;;;;;;;;5047365;28;19925;-79
2021/01/23 06:26:35;;;;;;;;;;;;;;;;;;5046545;28;19946;-79
2021/01/23 06:29:00;;;;;;;;;;;;;;;;;;5038034;28;19940;-79
2021/01/23 06:31:26;;;;;;;;;;;;;;;;;;5047452;28;19929;-79
2021/01/23 06:33:52;;;;;;;;;;;;;;;;;;5045011;28;19925;-79
2021/01/23 06:36:18;;;;;;;;;;;;;;;;;;5047850;28;19925;-78
2021/01/23 06:38:44;;;;;;;;;;;;;;;;;;5045507;28;19925;-79
2021/01/23 06:41:10;;;;;;;;;;;;;;;;;;5047195;28;19924;-79
2021/01/23 06:43:37;;;;;;;;;;;;;;;;;;5046182;28;19951;-78
2021/01/23 06:46:03;;;;;;;;;;;;;;;;;;5038356;28;20565;-80
2021/01/23 06:48:29;;;;;;;;;;;;;;;;;;5047294;28;19932;-79
2021/01/23 06:50:55;;;;;;;;;;;;;;;;;;5044389;28;19951;-79
2021/01/23 06:53:21;;;;;;;;;;;;;;;;;;5048161;28;19925;-79
2021/01/23 06:55:47;;;;;;;;;;;;;;;;;;5045562;28;19935;-79
2021/01/23 06:58:13;;;;;;;;;;;;;;;;;;5048270;28;19925;-79
2021/01/23 07:00:39;;;;;;;;;;;;;;;;;;5039897;28;19952;-78
2021/01/23 07:03:05;;;;;;;;;;;;;;;;;;5047424;28;19932;-79
2021/01/23 07:05:31;;;;;;;;;;;;;;;;;;5059169;28;19947;-79
2021/01/23 07:07:57;;;;;;;;;;;;;;;;;;5064719;28;19931;-79
2021/01/23 07:10:23;;;;;;;;;;;;;;;;;;5067042;28;20335;-79
2021/01/23 07:12:49;;;;;;;;;;;;;;;;;;5063744;28;19932;-79
2021/01/23 07:15:15;;;;;;;;;;;;;;;;;;5066382;28;19954;-79
2021/01/23 07:17:41;;;;;;;;;;;;;;;;;;5048283;28;19925;-79
2021/01/23 07:20:07;;;;;;;;;;;;;;;;;;5061916;28;19978;-78
2021/01/23 07:22:33;;;;;;;;;;;;;;;;;;5065706;28;20393;-78
2021/01/23 07:24:59;;;;;;;;;;;;;;;;;;5064649;28;19936;-79
2021/01/23 07:27:25;;;;;;;;;;;;;;;;;;5066989;28;19931;-79
2021/01/23 07:29:51;;;;;;;;;;;;;;;;;;5062893;28;19928;-78
2021/01/23 07:32:17;;;;;;;;;;;;;;;;;;5043291;28;19975;-79
2021/01/23 07:34:43;;;;;;;;;;;;;;;;;;5044528;28;19925;-78
2021/01/23 07:37:10;;;;;;;;;;;;;;;;;;5046226;28;19925;-79
2021/01/23 07:39:36;;;;;;;;;;;;;;;;;;5045974;28;20012;-79
2021/01/23 07:42:01;;;;;;;;;;;;;;;;;;5045543;28;20799;-79
2021/01/23 07:44:27;;;;;;;;;;;;;;;;;;5047117;28;19928;-78
2021/01/23 07:46:53;;;;;;;;;;;;;;;;;;5036404;28;20313;-77
2021/01/23 07:49:19;;;;;;;;;;;;;;;;;;5051777;28;19925;-78
2021/01/23 07:51:45;;;;;;;;;;;;;;;;;;5043626;28;19925;-77
2021/01/23 07:54:11;;;;;;;;;;;;;;;;;;5046122;28;19928;-78
2021/01/23 07:56:37;;;;;;;;;;;;;;;;;;5045741;28;19932;-78
2021/01/23 07:59:03;;;;;;;;;;;;;;;;;;5045165;28;20285;-76
2021/01/23 08:01:29;;;;;;;;;;;;;;;;;;5048735;28;19925;-75
2021/01/23 08:03:55;;;;;;;;;;;;;;;;;;5054182;28;20393;-77
2021/01/23 08:06:22;;;;;;;;;;;;;;;;;;5065364;28;19955;-78
2021/01/23 08:08:49;;;;;;;;;;;;;;;;;;5045122;28;19929;-79
2021/01/23 08:11:15;;;;;;;;;;;;;;;;;;5066715;28;19924;-78
2021/01/23 08:13:41;;;;;;;;;;;;;;;;;;5064257;28;19974;-78
2021/01/23 08:16:07;;;;;;;;;;;;;;;;;;5065452;28;19955;-79
2021/01/23 08:18:33;;;;;;;;;;;;;;;;;;5054203;28;19925;-77
2021/01/23 08:20:58;;;;;;;;;;;;;;;;;;5064829;28;19928;-78
2021/01/23 08:23:24;;;;;;;;;;;;;;;;;;5067895;28;19932;-78
2021/01/23 08:25:50;;;;;;;;;;;;;;;;;;5063033;28;19924;-78
2021/01/23 08:28:16;;;;;;;;;;;;;;;;;;5072804;28;20672;-78
2021/01/23 08:30:42;;;;;;;;;;;;;;;;;;5079246;28;19924;-78
2021/01/23 08:33:08;;;;;;;;;;;;;;;;;;5070937;28;20390;-78
2021/01/23 08:35:34;;;;;;;;;;;;;;;;;;5061544;28;19924;-78
2021/01/23 08:38:00;;;;;;;;;;;;;;;;;;5064779;28;20007;-78
2021/01/23 08:40:26;;;;;;;;;;;;;;;;;;5066229;28;19924;-78
2021/01/23 08:42:52;;;;;;;;;;;;;;;;;;5061970;28;20364;-78
2021/01/23 08:45:18;;;;;;;;;;;;;;;;;;5073780;28;19928;-79
2021/01/23 08:47:44;;;;;;;;;;;;;;;;;;5068058;28;19924;-79
2021/01/23 08:50:10;;;;;;;;;;;;;;;;;;5050823;28;19932;-78
2021/01/23 08:52:36;;;;;;;;;;;;;;;;;;5049889;28;19924;-78
2021/01/23 08:55:02;;;;;;;;;;;;;;;;;;5050765;28;19931;-78
2021/01/23 08:57:28;;;;;;;;;;;;;;;;;;5051292;28;20297;-79
2021/01/23 08:59:53;;;;;;;;;;;;;;;;;;5050102;28;19932;-79
2021/01/23 09:02:19;;;;;;;;;;;;;;;;;;5051379;28;19994;-77
2021/01/23 09:04:45;;;;;;;;;;;;;;;;;;5043669;28;19932;-79
2021/01/23 09:07:11;;;;;;;;;;;;;;;;;;5051019;28;20305;-78
2021/01/23 09:09:37;;;;;;;;;;;;;;;;;;5070409;28;20054;-78
2021/01/23 09:12:03;;;;;;;;;;;;;;;;;;5062883;28;20306;-78
2021/01/23 09:14:29;;;;;;;;;;;;;;;;;;5069570;28;19924;-75
2021/01/23 09:16:55;;;;;;;;;;;;;;;;;;5067013;28;19981;-76
2021/01/23 09:19:21;;;;;;;;;;;;;;;;;;5069085;28;19932;-76
2021/01/23 09:21:47;;;;;;;;;;;;;;;;;;5039814;28;19925;-78
2021/01/23 09:24:13;;;;;;;;;;;;;;;;;;5048973;28;19925;-78
2021/01/23 09:26:39;;;;;;;;;;;;;;;;;;5047397;28;19924;-78
2021/01/23 09:29:05;;;;;;;;;;;;;;;;;;5047763;28;19932;-77
2021/01/23 09:31:31;;;;;;;;;;;;;;;;;;5048165;28;19933;-77
2021/01/23 09:33:57;;;;;;;;;;;;;;;;;;5047182;28;19925;-77
2021/01/23 09:36:23;;;;;;;;;;;;;;;;;;5042890;28;20289;-77
2021/01/23 09:38:49;;;;;;;;;;;;;;;;;;5044448;28;20529;-78
2021/01/23 09:41:15;;;;;;;;;;;;;;;;;;5048465;28;19929;-78
2021/01/23 09:43:41;;;;;;;;;;;;;;;;;;5047111;28;19975;-78
2021/01/23 09:46:07;;;;;;;;;;;;;;;;;;5047580;28;19935;-76
2021/01/23 09:48:33;;;;;;;;;;;;;;;;;;5049169;28;20340;-76
2021/01/23 09:50:59;;;;;;;;;;;;;;;;;;5065634;28;19925;-78
2021/01/23 09:53:25;;;;;;;;;;;;;;;;;;5044725;28;19925;-77
2021/01/23 09:55:50;;;;;;;;;;;;;;;;;;5044900;28;20278;-78
2021/01/23 09:58:17;;;;;;;;;;;;;;;;;;5048978;28;19925;-78
2021/01/23 10:00:42;;;;;;;;;;;;;;;;;;5046398;28;19932;-78
2021/01/23 10:03:08;;;;;;;;;;;;;;;;;;5048492;28;19929;-79
2021/01/23 10:05:34;;;;;;;;;;;;;;;;;;5047273;28;20300;-77
2021/01/23 10:08:00;;;;;;;;;;;;;;;;;;5055674;28;19924;-79
2021/01/23 10:10:28;;;;;;;;;;;;;;;;;;5068877;28;19924;-79
2021/01/23 10:12:54;;;;;;;;;;;;;;;;;;5065127;28;19932;-78
2021/01/23 10:15:20;;;;;;;;;;;;;;;;;;5068451;28;19925;-79
2021/01/23 10:17:46;;;;;;;;;;;;;;;;;;5065719;28;19924;-78
2021/01/23 10:20:11;;;;;;;;;;;;;;;;;;5068095;28;19924;-78
2021/01/23 10:22:37;;;;;;;;;;;;;;;;;;5049137;28;20333;-78
2021/01/23 10:25:03;;;;;;;;;;;;;;;;;;5046974;28;19932;-79
2021/01/23 10:27:29;;;;;;;;;;;;;;;;;;5047914;28;20344;-78
2021/01/23 10:29:55;;;;;;;;;;;;;;;;;;5045421;28;19932;-77
2021/01/23 10:32:21;;;;;;;;;;;;;;;;;;5047953;28;20320;-79
2021/01/23 10:34:47;;;;;;;;;;;;;;;;;;5044649;28;19982;-79
2021/01/23 10:37:13;;;;;;;;;;;;;;;;;;5047487;28;20290;-79
2021/01/23 10:39:39;;;;;;;;;;;;;;;;;;5053056;28;19924;-78
2021/01/23 10:42:05;;;;;;;;;;;;;;;;;;5066409;28;19951;-79
2021/01/23 10:44:31;;;;;;;;;;;;;;;;;;5064223;28;20336;-79
2021/01/23 10:46:57;;;;;;;;;;;;;;;;;;5063597;28;19932;-79
2021/01/23 10:49:23;;;;;;;;;;;;;;;;;;5066976;28;20373;-79
2021/01/23 10:51:49;;;;;;;;;;;;;;;;;;5064516;28;19977;-79
2021/01/23 10:54:16;;;;;;;;;;;;;;;;;;5053637;28;19932;-78
2021/01/23 10:56:42;;;;;;;;;;;;;;;;;;5062606;28;19947;-79
2021/01/23 10:59:08;;;;;;;;;;;;;;;;;;5066883;28;20331;-79
2021/01/23 11:01:34;;;;;;;;;;;;;;;;;;5065925;28;19924;-78
2021/01/23 11:04:00;;;;;;;;;;;;;;;;;;5064693;28;20351;-79
2021/01/23 11:06:26;;;;;;;;;;;;;;;;;;5066827;28;19926;-78
2021/01/23 11:08:51;;;;;;;;;;;;;;;;;;5052386;28;24614;-78
2021/01/23 11:11:17;;;;;;;;;;;;;;;;;;5066747;28;19936;-79
2021/01/23 11:13:43;;;;;;;;;;;;;;;;;;5064626;28;19924;-78
2021/01/23 11:16:09;;;;;;;;;;;;;;;;;;5066935;28;19925;-79
2021/01/23 11:18:35;;;;;;;;;;;;;;;;;;5065378;28;19948;-79
2021/01/23 11:21:02;;;;;;;;;;;;;;;;;;5065986;28;19924;-79
2021/01/23 11:23:28;;;;;;;;;;;;;;;;;;5066854;28;19935;-79
2021/01/23 11:25:53;;;;;;;;;;;;;;;;;;5055262;28;19924;-77
2021/01/23 11:28:19;;;;;;;;;;;;;;;;;;5067497;28;20361;-79
2021/01/23 11:30:45;;;;;;;;;;;;;;;;;;5067209;28;19925;-79
2021/01/23 11:33:11;;;;;;;;;;;;;;;;;;5069307;28;20325;-79
2021/01/23 11:35:38;;;;;;;;;;;;;;;;;;5065936;28;19937;-79
2021/01/23 11:38:05;;;;;;;;;;;;;;;;;;5065291;28;19967;-79
2021/01/23 11:40:31;;;;;;;;;;;;;;;;;;5064025;28;19925;-79
2021/01/23 11:42:57;;;;;;;;;;;;;;;;;;5040491;28;19932;-78
2021/01/23 11:45:23;;;;;;;;;;;;;;;;;;5048434;28;19932;-80
2021/01/23 11:47:49;;;;;;;;;;;;;;;;;;5043935;28;20248;-79
2021/01/23 11:50:14;;;;;;;;;;;;;;;;;;5048517;28;19925;-79
2021/01/23 11:52:40;;;;;;;;;;;;;;;;;;5065690;28;19931;-80
2021/01/23 11:55:06;;;;;;;;;;;;;;;;;;5066480;28;20395;-79
2021/01/23 11:57:33;;;;;;;;;;;;;;;;;;5047593;28;19925;-79
2021/01/23 11:59:59;;;;;;;;;;;;;;;;;;5044658;28;19924;-79
2021/01/23 12:02:24;;;;;;;;;;;;;;;;;;5051447;28;19932;-79
2021/01/23 12:04:51;;;;;;;;;;;;;;;;;;5062342;28;19925;-77
2021/01/23 12:07:18;;;;;;;;;;;;;;;;;;5064645;28;19931;-77
2021/01/23 12:09:44;;;;;;;;;;;;;;;;;;5067873;28;19924;-79
2021/01/23 12:12:10;;;;;;;;;;;;;;;;;;5049135;28;19925;-79
2021/01/23 12:14:36;;;;;;;;;;;;;;;;;;5049178;28;19948;-79
2021/01/23 12:17:02;;;;;;;;;;;;;;;;;;5052224;28;19925;-79
2021/01/23 12:19:28;;;;;;;;;;;;;;;;;;5069983;28;19935;-79
2021/01/23 12:21:54;;;;;;;;;;;;;;;;;;5067464;28;19935;-79
2021/01/23 12:24:21;;;;;;;;;;;;;;;;;;5070681;28;19924;-79
2021/01/23 12:26:47;;;;;;;;;;;;;;;;;;5057188;28;19932;-78
2021/01/23 12:29:14;;;;;;;;;;;;;;;;;;5051567;28;19925;-79
2021/01/23 12:31:39;;;;;;;;;;;;;;;;;;5050287;28;20122;-79
2021/01/23 12:34:05;;;;;;;;;;;;;;;;;;5050542;28;20452;-78
2021/01/23 12:36:31;;;;;;;;;;;;;;;;;;5050838;28;19931;-79
2021/01/23 12:38:57;;;;;;;;;;;;;;;;;;5050482;28;19979;-78
2021/01/23 12:41:23;;;;;;;;;;;;;;;;;;5051411;28;19928;-78
2021/01/23 12:43:49;;;;;;;;;;;;;;;;;;5040446;28;19944;-77
2021/01/23 12:46:15;;;;;;;;;;;;;;;;;;5052015;28;19929;-78
2021/01/23 12:48:41;;;;;;;;;;;;;;;;;;5048416;28;20297;-78
2021/01/23 12:51:07;;;;;;;;;;;;;;;;;;5050900;28;19935;-78
2021/01/23 12:53:33;;;;;;;;;;;;;;;;;;5051660;28;19948;-79
2021/01/23 12:55:59;;;;;;;;;;;;;;;;;;5047879;28;19948;-77
2021/01/23 12:58:25;;;;;;;;;;;;;;;;;;5047507;28;19925;-79
2021/01/23 13:00:51;;;;;;;;;;;;;;;;;;5067431;28;19932;-78
2021/01/23 13:03:17;;;;;;;;;;;;;;;;;;5071384;28;19931;-79
2021/01/23 13:05:43;;;;;;;;;;;;;;;;;;5068465;28;19947;-79
2021/01/23 13:08:09;;;;;;;;;;;;;;;;;;5070761;28;19932;-79
2021/01/23 13:10:35;;;;;;;;;;;;;;;;;;5071637;28;20297;-79
2021/01/23 13:13:01;;;;;;;;;;;;;;;;;;5066650;28;19931;-80
2021/01/23 13:15:27;;;;;;;;;;;;;;;;;;5045486;28;19925;-78
2021/01/23 13:17:53;;;;;;;;;;;;;;;;;;5048505;28;20365;-79
2021/01/23 13:20:19;;;;;;;;;;;;;;;;;;5053473;28;20332;-79
2021/01/23 13:22:45;;;;;;;;;;;;;;;;;;5047060;28;19932;-80
2021/01/23 13:25:11;;;;;;;;;;;;;;;;;;5051961;28;20289;-80
2021/01/23 13:27:37;;;;;;;;;;;;;;;;;;5050610;28;19924;-79
2021/01/23 13:30:03;;;;;;;;;;;;;;;;;;5044510;28;20306;-79
2021/01/23 13:32:29;;;;;;;;;;;;;;;;;;5070874;28;19924;-79
2021/01/23 13:34:55;;;;;;;;;;;;;;;;;;5068398;28;19982;-78
2021/01/23 13:37:21;;;;;;;;;;;;;;;;;;5069810;28;19974;-78
2021/01/23 13:39:47;;;;;;;;;;;;;;;;;;5065498;28;19924;-78
2021/01/23 13:42:13;;;;;;;;;;;;;;;;;;5068306;28;19925;-76
2021/01/23 13:44:39;;;;;;;;;;;;;;;;;;5067969;28;19931;-79
2021/01/23 13:47:05;;;;;;;;;;;;;;;;;;5048469;28;19932;-79
2021/01/23 13:49:31;;;;;;;;;;;;;;;;;;5050675;28;20240;-78
2021/01/23 13:51:58;;;;;;;;;;;;;;;;;;5046367;28;19925;-78
2021/01/23 13:54:24;;;;;;;;;;;;;;;;;;5048182;28;20378;-78
2021/01/23 13:56:49;;;;;;;;;;;;;;;;;;5045171;28;19932;-78
2021/01/23 13:59:15;;;;;;;;;;;;;;;;;;5048398;28;19925;-78
2021/01/23 14:01:41;;;;;;;;;;;;;;;;;;5053408;28;19925;-79
2021/01/23 14:04:07;;;;;;;;;;;;;;;;;;5047235;28;19975;-79
2021/01/23 14:06:33;;;;;;;;;;;;;;;;;;5049132;28;19924;-79
2021/01/23 14:08:59;;;;;;;;;;;;;;;;;;5058649;28;19924;-77
2021/01/23 14:11:25;;;;;;;;;;;;;;;;;;5071142;28;19932;-80
2021/01/23 14:13:51;;;;;;;;;;;;;;;;;;5068952;28;19925;-79
2021/01/23 14:16:20;;;;;;;;;;;;;;;;;;5072531;28;19947;-79
2021/01/23 14:18:46;;;;;;;;;;;;;;;;;;5053973;28;20385;-79
2021/01/23 14:21:12;;;;;;;;;;;;;;;;;;5069790;28;19955;-77
2021/01/23 14:23:37;;;;;;;;;;;;;;;;;;5066019;28;19955;-79
2021/01/23 14:26:03;;;;;;;;;;;;;;;;;;5065941;28;20011;-79
2021/01/23 14:28:29;;;;;;;;;;;;;;;;;;5067332;28;19925;-78
2021/01/23 14:30:55;;;;;;;;;;;;;;;;;;5066195;28;20420;-79
2021/01/23 14:33:21;;;;;;;;;;;;;;;;;;5061473;28;19931;-80
2021/01/23 14:35:47;;;;;;;;;;;;;;;;;;5069901;28;20273;-79
2021/01/23 14:38:13;;;;;;;;;;;;;;;;;;5072612;28;19925;-79
2021/01/23 14:40:39;;;;;;;;;;;;;;;;;;5067415;28;19928;-80
2021/01/23 14:43:05;;;;;;;;;;;;;;;;;;5068614;28;19928;-78
2021/01/23 14:45:31;;;;;;;;;;;;;;;;;;5068457;28;19924;-79
2021/01/23 14:47:57;;;;;;;;;;;;;;;;;;5055810;28;19951;-80
2021/01/23 14:50:23;;;;;;;;;;;;;;;;;;5070101;28;20335;-79
2021/01/23 14:52:48;;;;;;;;;;;;;;;;;;5066683;28;19928;-79
2021/01/23 14:55:15;;;;;;;;;;;;;;;;;;5069333;28;19925;-77
2021/01/23 14:57:41;;;;;;;;;;;;;;;;;;5066520;28;19932;-79
2021/01/23 15:00:06;;;;;;;;;;;;;;;;;;5069437;28;19933;-79
2021/01/23 15:02:33;;;;;;;;;;;;;;;;;;5068459;28;19924;-78
2021/01/23 15:04:59;;;;;;;;;;;;;;;;;;5058385;28;19924;-77
2021/01/23 15:07:25;;;;;;;;;;;;;;;;;;5077148;28;19932;-79
2021/01/23 15:09:50;;;;;;;;;;;;;;;;;;5074641;28;19932;-79
2021/01/23 15:12:16;;;;;;;;;;;;;;;;;;5080178;28;19974;-80
2021/01/23 15:14:42;;;;;;;;;;;;;;;;;;5076233;28;19925;-79
2021/01/23 15:17:08;;;;;;;;;;;;;;;;;;5080018;28;19959;-80
2021/01/23 15:19:34;;;;;;;;;;;;;;;;;;5071708;28;19924;-79
2021/01/23 15:22:00;;;;;;;;;;;;;;;;;;5049913;28;20236;-79
2021/01/23 15:24:26;;;;;;;;;;;;;;;;;;5050085;28;19925;-79
2021/01/23 15:26:52;;;;;;;;;;;;;;;;;;5045699;28;19925;-79
2021/01/23 15:29:18;;;;;;;;;;;;;;;;;;5048912;28;19937;-79
2021/01/23 15:31:44;;;;;;;;;;;;;;;;;;5047193;28;19928;-77
2021/01/23 15:34:10;;;;;;;;;;;;;;;;;;5048700;28;20443;-78
2021/01/23 15:36:36;;;;;;;;;;;;;;;;;;5056277;28;19954;-76
2021/01/23 15:39:02;;;;;;;;;;;;;;;;;;5073269;28;20691;-79
2021/01/23 15:41:28;;;;;;;;;;;;;;;;;;5075223;28;19928;-78
2021/01/23 15:43:54;;;;;;;;;;;;;;;;;;5071901;28;19932;-77
2021/01/23 15:46:20;;;;;;;;;;;;;;;;;;5074535;28;19924;-77
2021/01/23 15:48:46;;;;;;;;;;;;;;;;;;5071941;28;19925;-77
2021/01/23 15:51:12;;;;;;;;;;;;;;;;;;5067010;28;20297;-78
2021/01/23 15:53:38;;;;;;;;;;;;;;;;;;5074152;28;19944;-78
2021/01/23 15:56:04;;;;;;;;;;;;;;;;;;5072159;28;20235;-79
2021/01/23 15:58:30;;;;;;;;;;;;;;;;;;5073710;28;19924;-79
2021/01/23 16:00:57;;;;;;;;;;;;;;;;;;5074097;28;19924;-79
2021/01/23 16:03:23;;;;;;;;;;;;;;;;;;5076096;28;20303;-79
2021/01/23 16:05:49;;;;;;;;;;;;;;;;;;5063767;28;19933;-79
2021/01/23 16:08:15;;;;;;;;;;;;;;;;;;5068261;28;19970;-79
2021/01/23 16:10:41;;;;;;;;;;;;;;;;;;5053890;28;19931;-79
2021/01/23 16:13:07;;;;;;;;;;;;;;;;;;5053670;28;19932;-78
2021/01/23 16:15:33;;;;;;;;;;;;;;;;;;5052628;28;19975;-79
2021/01/23 16:17:59;;;;;;;;;;;;;;;;;;5054969;28;19924;-79
2021/01/23 16:20:32;;;;;;;;;;;;;;;;;;5074479;28;19932;-79
2021/01/23 16:22:58;;;;;;;;;;;;;;;;;;5063608;28;19950;-79
2021/01/23 16:25:26;;;;;;;;;;;;;;;;;;5076516;28;19925;-79
2021/01/23 16:27:52;;;;;;;;;;;;;;;;;;5074662;28;19928;-80
2021/01/23 16:30:18;;;;;;;;;;;;;;;;;;5076762;28;20495;-79
2021/01/23 16:32:45;;;;;;;;;;;;;;;;;;5071977;28;20393;-78
2021/01/23 16:35:11;;;;;;;;;;;;;;;;;;5072685;28;20307;-77
2021/01/23 16:37:37;;;;;;;;;;;;;;;;;;5067850;28;19924;-78